Time;durP1;ratioP1;P1;durP2;ratioP2;P2;SDS_P1;SDS_P2;PMS_P1;PMS_P2;Temp;Humidity;BMP_temperature;BMP_pressure;BME280_temperature;BME280_humidity;BME280_pressure;Samples;Min_cycle;Max_cycle;Signal;HPM_P1;HPM_P2
2020/12/06 00:01:38;;;;;;;20.60;16.03;;;4.70;82.30;;;;;;5051335;28;20090;-81
2020/12/06 00:04:06;;;;;;;20.03;15.60;;;4.60;82.30;;;;;;5068486;28;20033;-83
2020/12/06 00:06:32;;;;;;;22.43;16.23;;;4.90;82.50;;;;;;5063415;28;20072;-84
2020/12/06 00:09:18;;;;;;;21.20;16.23;;;4.70;82.40;;;;;;5057642;28;20037;-83
2020/12/06 00:11:43;;;;;;;21.37;16.50;;;4.70;82.40;;;;;;5040514;28;20439;-83
2020/12/06 00:14:09;;;;;;;20.17;15.60;;;4.70;82.40;;;;;;5049180;28;20036;-83
2020/12/06 00:16:55;;;;;;;22.13;16.90;;;4.70;82.50;;;;;;5054459;28;20052;-82
2020/12/06 00:19:20;;;;;;;20.90;15.13;;;4.60;82.30;;;;;;5071193;28;20508;-84
2020/12/06 00:22:06;;;;;;;19.43;15.13;;;4.60;82.40;;;;;;5043663;28;20045;-82
2020/12/06 00:24:52;;;;;;;21.53;15.30;;;4.60;82.40;;;;;;5061122;28;20048;-82
2020/12/06 00:27:18;;;;;;;18.97;15.30;;;4.60;82.50;;;;;;5066961;28;20028;-81
2020/12/06 00:29:43;;;;;;;25.70;15.67;;;4.70;82.50;;;;;;5040272;28;20036;-82
2020/12/06 00:32:09;;;;;;;19.53;15.43;;;4.70;82.50;;;;;;5055816;28;20449;-82
2020/12/06 00:34:36;;;;;;;20.60;15.17;;;4.60;82.60;;;;;;5073205;28;20036;-82
2020/12/06 00:37:02;;;;;;;23.60;16.50;;;4.60;82.60;;;;;;5053573;28;20033;-82
2020/12/06 00:39:49;;;;;;;19.13;14.40;;;4.60;82.60;;;;;;5058292;28;20439;-82
2020/12/06 00:42:15;;;;;;;19.83;15.50;;;4.70;82.80;;;;;;5057080;28;20537;-80
2020/12/06 00:44:40;;;;;;;19.77;15.33;;;4.60;82.80;;;;;;5038576;28;20112;-84
2020/12/06 00:47:06;;;;;;;20.10;15.00;;;4.60;82.70;;;;;;5039640;28;20041;-83
2020/12/06 00:49:32;;;;;;;19.47;16.00;;;4.70;82.80;;;;;;5073427;28;20045;-83
2020/12/06 00:52:01;;;;;;;25.23;16.07;;;4.70;82.70;;;;;;5058327;28;20471;-83
2020/12/06 00:54:47;;;;;;;20.13;15.53;;;4.70;82.60;;;;;;5068132;28;20044;-83
2020/12/06 00:57:13;;;;;;;19.20;15.70;;;4.70;82.60;;;;;;5080503;28;20032;-82
2020/12/06 00:59:38;;;;;;;19.53;15.80;;;4.70;82.60;;;;;;5077993;28;20040;-82
2020/12/06 01:02:07;;;;;;;21.20;15.90;;;4.70;82.60;;;;;;5054024;28;20052;-83
2020/12/06 01:04:33;;;;;;;22.30;17.17;;;4.70;82.60;;;;;;5062596;28;20094;-83
2020/12/06 01:07:01;;;;;;;22.73;15.47;;;4.60;82.50;;;;;;5061718;28;20112;-82
2020/12/06 01:09:46;;;;;;;24.60;16.57;;;4.70;82.60;;;;;;5048149;28;20106;-82
2020/12/06 01:12:32;;;;;;;22.03;17.23;;;4.80;82.70;;;;;;5057729;28;20044;-82
2020/12/06 01:14:58;;;;;;;21.80;16.53;;;4.60;82.70;;;;;;5073284;28;20056;-81
2020/12/06 01:17:44;;;;;;;25.83;17.63;;;4.60;82.60;;;;;;5060269;28;20040;-82
2020/12/06 01:20:29;;;;;;;23.60;17.00;;;4.60;82.60;;;;;;5039263;28;20036;-82
2020/12/06 01:22:57;;;;;;;22.40;16.20;;;4.60;82.60;;;;;;5056194;28;20439;-82
2020/12/06 01:25:23;;;;;;;19.63;16.60;;;4.60;82.60;;;;;;5069886;28;20356;-82
2020/12/06 01:28:09;;;;;;;22.47;17.13;;;4.60;82.70;;;;;;5058186;28;20052;-82
2020/12/06 01:30:34;;;;;;;26.53;17.40;;;4.60;82.80;;;;;;5070120;28;20029;-82
2020/12/06 01:33:00;;;;;;;24.40;17.27;;;4.60;82.60;;;;;;5067260;28;20029;-83
2020/12/06 01:35:26;;;;;;;27.23;18.10;;;4.60;82.70;;;;;;5072348;28;20043;-82
2020/12/06 01:37:52;;;;;;;24.47;17.43;;;4.60;82.80;;;;;;5060331;28;20116;-82
2020/12/06 01:40:17;;;;;;;22.00;16.60;;;4.70;82.90;;;;;;5073902;28;20049;-83
2020/12/06 01:43:03;;;;;;;22.50;16.77;;;4.60;82.90;;;;;;5050573;28;20049;-83
2020/12/06 01:45:29;;;;;;;23.07;16.20;;;4.60;82.90;;;;;;5040000;28;20040;-83
2020/12/06 01:47:54;;;;;;;24.87;17.27;;;4.60;82.90;;;;;;5078617;28;20033;-83
2020/12/06 01:50:20;;;;;;;25.70;17.80;;;4.60;82.90;;;;;;5066979;28;20570;-83
2020/12/06 01:52:47;;;;;;;27.37;18.47;;;4.60;83.00;;;;;;5063474;28;20025;-83
2020/12/06 01:55:13;;;;;;;23.73;18.07;;;4.70;83.00;;;;;;5071527;28;20036;-84
2020/12/06 01:57:39;;;;;;;24.50;17.27;;;4.70;83.00;;;;;;5057902;28;20037;-83
2020/12/06 02:00:07;;;;;;;26.33;18.40;;;4.70;83.00;;;;;;5073498;28;20090;-83
2020/12/06 02:02:52;;;;;;;25.67;17.47;;;4.70;82.90;;;;;;5061200;28;20044;-83
2020/12/06 02:05:38;;;;;;;24.23;17.83;;;4.60;82.90;;;;;;5053244;28;20048;-82
2020/12/06 02:08:04;;;;;;;26.17;17.63;;;4.70;82.90;;;;;;5069083;28;20543;-83
2020/12/06 02:10:30;;;;;;;27.30;17.20;;;4.70;82.90;;;;;;5069627;28;20056;-83
2020/12/06 02:13:16;;;;;;;23.57;16.77;;;4.70;83.50;;;;;;5059439;28;20123;-83
2020/12/06 02:16:02;;;;;;;24.63;17.10;;;4.60;82.70;;;;;;5040025;28;20053;-83
2020/12/06 02:18:27;;;;;;;23.87;17.77;;;4.90;82.90;;;;;;5057120;28;20495;-82
2020/12/06 02:20:58;;;;;;;27.03;18.70;;;4.60;82.70;;;;;;5074185;28;20113;-83
2020/12/06 02:23:24;;;;;;;26.07;17.57;;;4.60;82.60;;;;;;5057279;28;20028;-83
2020/12/06 02:26:10;;;;;;;24.50;17.30;;;4.60;82.60;;;;;;5073985;28;20063;-83
2020/12/06 02:28:55;;;;;;;25.93;17.23;;;4.60;82.70;;;;;;5049751;28;20472;-83
2020/12/06 02:31:21;;;;;;;28.50;17.70;;;4.60;82.60;;;;;;5074414;28;20037;-82
2020/12/06 02:34:08;;;;;;;26.03;18.97;;;4.60;82.60;;;;;;5049342;28;20090;-83
2020/12/06 02:36:33;;;;;;;26.50;18.07;;;4.50;82.50;;;;;;5056132;28;20048;-83
2020/12/06 02:39:19;;;;;;;24.63;18.60;;;4.50;82.50;;;;;;5057261;28;20088;-83
2020/12/06 02:42:05;;;;;;;25.93;17.33;;;4.50;82.40;;;;;;5041866;28;20036;-82
2020/12/06 02:44:30;;;;;;;30.73;21.07;;;4.80;82.60;;;;;;5049464;28;20123;-82
2020/12/06 02:46:58;;;;;;;32.37;20.57;;;4.40;82.30;;;;;;5054830;28;20115;-82
2020/12/06 02:49:44;;;;;;;26.80;17.40;;;4.50;82.30;;;;;;5028178;28;20475;-83
2020/12/06 02:52:29;;;;;;;28.40;18.30;;;4.40;82.20;;;;;;5058795;28;20040;-82
2020/12/06 02:54:57;;;;;;;27.63;19.97;;;4.30;82.10;;;;;;5053887;28;20087;-82
2020/12/06 02:57:42;;;;;;;29.93;19.27;;;4.30;82.10;;;;;;5061548;28;20045;-82
2020/12/06 03:00:08;;;;;;;30.07;19.07;;;4.30;82.20;;;;;;5036230;28;20052;-83
2020/12/06 03:02:34;;;;;;;32.53;20.23;;;4.20;82.20;;;;;;5073746;28;20052;-82
2020/12/06 03:05:20;;;;;;;31.33;21.20;;;4.20;82.20;;;;;;5048441;28;20047;-83
2020/12/06 03:07:46;;;;;;;28.73;19.87;;;4.20;82.20;;;;;;5055100;28;20036;-82
2020/12/06 03:10:12;;;;;;;31.27;18.77;;;4.20;82.40;;;;;;5069901;28;20037;-83
2020/12/06 03:12:38;;;;;;;33.03;20.50;;;4.20;82.60;;;;;;5070127;28;20042;-83
2020/12/06 03:15:04;;;;;;;36.60;22.10;;;4.20;82.60;;;;;;5090404;28;20032;-83
2020/12/06 03:17:30;;;;;;;32.50;21.93;;;4.20;82.80;;;;;;5057598;28;20029;-82
2020/12/06 03:19:55;;;;;;;35.10;20.63;;;4.20;83.00;;;;;;5070500;28;20058;-83
2020/12/06 03:22:32;;;;;;;29.33;19.90;;;4.20;83.20;;;;;;5051036;28;20056;-83
2020/12/06 03:25:00;;;;;;;32.33;20.63;;;4.20;83.30;;;;;;5055256;28;20426;-83
2020/12/06 03:27:25;;;;;;;29.23;20.80;;;4.30;83.30;;;;;;5041381;28;20053;-82
2020/12/06 03:30:11;;;;;;;48.53;20.90;;;4.30;83.40;;;;;;5044449;28;20043;-83
2020/12/06 03:32:37;;;;;;;30.93;22.27;;;4.30;83.40;;;;;;5056512;28;20037;-82
2020/12/06 03:35:03;;;;;;;29.40;21.57;;;4.30;83.40;;;;;;5067640;28;20051;-82
2020/12/06 03:37:28;;;;;;;31.03;21.33;;;4.30;83.30;;;;;;5042555;28;20473;-82
2020/12/06 03:39:54;;;;;;;32.90;20.90;;;4.30;83.30;;;;;;5071076;28;20052;-82
2020/12/06 03:42:40;;;;;;;35.77;19.53;;;4.40;83.50;;;;;;5074830;28;20110;-81
2020/12/06 03:45:05;;;;;;;28.70;20.43;;;4.40;83.50;;;;;;5066608;28;20029;-81
2020/12/06 03:47:54;;;;;;;27.20;19.97;;;4.40;83.40;;;;;;5057997;28;20052;-81
2020/12/06 03:50:40;;;;;;;28.60;21.23;;;4.40;83.40;;;;;;5058113;28;20051;-84
2020/12/06 03:53:06;;;;;;;30.70;21.23;;;4.40;83.20;;;;;;5069211;28;20029;-82
2020/12/06 03:55:32;;;;;;;33.40;21.17;;;4.40;83.30;;;;;;5056308;28;20040;-82
2020/12/06 03:57:57;;;;;;;33.47;21.07;;;4.30;83.40;;;;;;5069335;28;20435;-82
2020/12/06 04:00:23;;;;;;;32.87;21.43;;;4.40;83.40;;;;;;5054895;28;20060;-82
2020/12/06 04:02:50;;;;;;;29.13;20.77;;;4.40;83.40;;;;;;5073636;28;20110;-82
2020/12/06 04:05:20;;;;;;;29.43;20.97;;;4.40;83.40;;;;;;5047757;28;20040;-82
2020/12/06 04:07:49;;;;;;;27.13;20.07;;;4.40;83.40;;;;;;5069645;28;20091;-83
2020/12/06 04:10:16;;;;;;;37.17;21.60;;;4.40;83.40;;;;;;5064442;28;20086;-83
2020/12/06 04:12:42;;;;;;;35.10;21.03;;;4.50;83.50;;;;;;5036023;28;20037;-82
2020/12/06 04:15:27;;;;;;;30.53;21.27;;;4.50;83.50;;;;;;5051889;28;20043;-82
2020/12/06 04:17:53;;;;;;;47.17;21.47;;;4.50;83.40;;;;;;5065925;28;20119;-82
2020/12/06 04:20:19;;;;;;;29.23;21.50;;;4.50;83.40;;;;;;5071177;28;20137;-82
2020/12/06 04:23:05;;;;;;;34.93;20.53;;;4.50;83.30;;;;;;5038416;28;20079;-82
2020/12/06 04:25:30;;;;;;;31.43;21.07;;;4.70;83.60;;;;;;5070107;28;20108;-82
2020/12/06 04:28:16;;;;;;;31.20;21.83;;;4.50;83.30;;;;;;5055981;28;20049;-82
2020/12/06 04:30:42;;;;;;;31.53;20.63;;;4.50;83.40;;;;;;5090513;28;20029;-82
2020/12/06 04:33:07;;;;;;;33.83;22.57;;;4.50;83.30;;;;;;5074312;28;20068;-82
2020/12/06 04:35:53;;;;;;;32.13;21.53;;;4.50;83.20;;;;;;5048005;28;20465;-83
2020/12/06 04:38:19;;;;;;;30.77;22.17;;;4.50;83.20;;;;;;5073986;28;20064;-83
2020/12/06 04:41:04;;;;;;;29.43;20.33;;;4.50;82.90;;;;;;5056607;28;20094;-83
2020/12/06 04:43:30;;;;;;;30.23;21.27;;;4.50;82.90;;;;;;5073239;28;20055;-82
2020/12/06 04:45:56;;;;;;;31.83;21.57;;;4.50;82.90;;;;;;5057599;28;20037;-82
2020/12/06 04:48:40;;;;;;;27.23;19.97;;;4.50;82.80;;;;;;5067745;28;20033;-82
2020/12/06 04:51:27;;;;;;;45.90;23.15;;;4.50;82.80;;;;;;5046043;28;20048;-82
2020/12/06 04:54:03;;;;;;;32.77;22.27;;;4.50;82.80;;;;;;5078276;28;20040;-82
2020/12/06 04:56:50;;;;;;;31.23;21.67;;;4.50;82.70;;;;;;5032040;28;20131;-83
2020/12/06 04:59:16;;;;;;;35.40;21.70;;;4.50;82.80;;;;;;5044368;28;20032;-82
2020/12/06 05:01:42;;;;;;;37.83;24.93;;;4.40;82.60;;;;;;5037444;28;20069;-82
2020/12/06 05:04:27;;;;;;;34.23;21.70;;;4.50;82.70;;;;;;5040567;28;20041;-83
2020/12/06 05:06:53;;;;;;;71.03;22.33;;;4.40;82.90;;;;;;5054415;28;20567;-83
2020/12/06 05:09:39;;;;;;;31.07;20.47;;;4.40;82.90;;;;;;5063302;28;20071;-83
2020/12/06 05:12:06;;;;;;;34.10;21.97;;;4.40;83.00;;;;;;5059577;28;20404;-83
2020/12/06 05:14:32;;;;;;;31.93;22.10;;;4.50;83.00;;;;;;5055642;28;20071;-82
2020/12/06 05:16:58;;;;;;;34.70;21.90;;;4.50;83.00;;;;;;5043556;28;20033;-82
2020/12/06 05:19:43;;;;;;;37.20;24.33;;;4.40;83.00;;;;;;5062833;28;20049;-82
2020/12/06 05:22:09;;;;;;;55.60;22.33;;;4.30;83.00;;;;;;5056598;28;20181;-82
2020/12/06 05:24:35;;;;;;;42.03;22.60;;;4.40;83.20;;;;;;5055895;28;20036;-82
2020/12/06 05:27:01;;;;;;;37.50;25.17;;;4.40;83.20;;;;;;5039546;28;20033;-82
2020/12/06 05:29:46;;;;;;;38.23;26.53;;;4.40;83.60;;;;;;5058238;28;20385;-82
2020/12/06 05:32:35;;;;;;;43.37;25.53;;;4.40;83.00;;;;;;5036359;28;20044;-82
2020/12/06 05:35:21;;;;;;;42.10;26.03;;;4.30;83.00;;;;;;5041025;28;20519;-82
2020/12/06 05:38:07;;;;;;;100.47;26.93;;;4.30;83.00;;;;;;5061664;28;20044;-82
2020/12/06 05:40:34;;;;;;;47.23;28.40;;;4.30;83.00;;;;;;5052323;28;20047;-82
2020/12/06 05:43:25;;;;;;;40.60;26.37;;;4.30;83.10;;;;;;5048052;28;20051;-83
2020/12/06 05:46:10;;;;;;;47.70;30.40;;;4.30;83.20;;;;;;5055490;28;20044;-82
2020/12/06 05:48:36;;;;;;;46.93;29.17;;;4.30;83.30;;;;;;5046180;28;20072;-83
2020/12/06 05:51:02;;;;;;;51.70;27.83;;;4.30;83.40;;;;;;5063312;28;20048;-83
2020/12/06 05:53:47;;;;;;;45.70;27.27;;;4.30;83.40;;;;;;5078541;28;20056;-83
2020/12/06 05:56:18;;;;;;;45.67;28.87;;;4.30;83.40;;;;;;5051851;28;20037;-83
2020/12/06 05:58:44;;;;;;;43.07;28.40;;;4.30;83.50;;;;;;5052844;28;20115;-83
2020/12/06 06:01:11;;;;;;;47.23;28.67;;;4.30;83.50;;;;;;5060290;28;20049;-83
2020/12/06 06:03:56;;;;;;;43.47;26.97;;;4.30;83.60;;;;;;5062960;28;20102;-83
2020/12/06 06:06:41;;;;;;;43.90;27.00;;;4.30;83.50;;;;;;5057134;28;20447;-83
2020/12/06 06:09:07;;;;;;;40.90;28.10;;;4.40;83.60;;;;;;5060180;28;20457;-83
2020/12/06 06:11:56;;;;;;;40.90;28.40;;;4.40;83.60;;;;;;5049167;28;20060;-82
2020/12/06 06:14:22;;;;;;;41.17;27.07;;;4.40;83.60;;;;;;5039529;28;20063;-82
2020/12/06 06:16:48;;;;;;;37.73;26.23;;;4.40;83.60;;;;;;5055887;28;20106;-82
2020/12/06 06:19:14;;;;;;;42.30;26.33;;;4.40;83.80;;;;;;5052999;28;20119;-79
2020/12/06 06:21:41;;;;;;;36.50;25.43;;;4.40;83.80;;;;;;5067878;28;20036;-83
2020/12/06 06:24:27;;;;;;;37.97;27.07;;;4.50;84.00;;;;;;5054491;28;20067;-82
2020/12/06 06:26:53;;;;;;;40.43;24.97;;;4.50;84.10;;;;;;5065012;28;20032;-81
2020/12/06 06:29:19;;;;;;;38.60;25.73;;;4.50;84.10;;;;;;5056081;28;20397;-82
2020/12/06 06:31:52;;;;;;;37.23;26.10;;;4.50;84.10;;;;;;5057333;28;20529;-83
2020/12/06 06:34:38;;;;;;;40.57;25.57;;;4.60;83.90;;;;;;5059206;28;20401;-82
2020/12/06 06:37:14;;;;;;;39.53;26.40;;;4.60;84.10;;;;;;5038326;28;20036;-83
2020/12/06 06:40:02;;;;;;;41.30;26.97;;;4.70;83.80;;;;;;5057431;28;20054;-83
2020/12/06 06:42:28;;;;;;;39.70;26.63;;;4.70;83.70;;;;;;5039023;28;20049;-83
2020/12/06 06:45:08;;;;;;;36.53;24.77;;;4.70;83.60;;;;;;5075103;28;20032;-84
2020/12/06 06:47:38;;;;;;;43.77;27.53;;;4.70;83.50;;;;;;5066042;28;20029;-83
2020/12/06 06:50:04;;;;;;;42.23;27.70;;;4.70;83.30;;;;;;5051979;28;20040;-83
2020/12/06 06:52:32;;;;;;;37.80;25.80;;;4.70;83.00;;;;;;5055117;28;20400;-84
2020/12/06 06:54:58;;;;;;;37.63;26.00;;;4.80;83.00;;;;;;5057418;28;20037;-82
2020/12/06 06:57:24;;;;;;;39.30;25.73;;;4.80;83.10;;;;;;5054172;28;20400;-83
2020/12/06 07:00:10;;;;;;;40.23;25.53;;;4.80;83.10;;;;;;5038014;28;20056;-84
2020/12/06 07:02:42;;;;;;;38.27;25.20;;;4.80;83.30;;;;;;5070814;28;20477;-82
2020/12/06 07:05:11;;;;;;;38.33;24.10;;;4.80;83.30;;;;;;5064173;28;20036;-84
2020/12/06 07:07:58;;;;;;;33.47;23.27;;;4.80;83.30;;;;;;5066119;28;20041;-81
2020/12/06 07:10:43;;;;;;;38.57;25.90;;;4.80;83.50;;;;;;5056909;28;20059;-82
2020/12/06 07:13:09;;;;;;;35.37;23.07;;;4.90;83.50;;;;;;5070156;28;20045;-81
2020/12/06 07:15:55;;;;;;;55.77;24.63;;;4.90;83.40;;;;;;5058864;28;20404;-81
2020/12/06 07:18:21;;;;;;;36.23;23.80;;;4.90;83.30;;;;;;5082777;28;20042;-81
2020/12/06 07:21:07;;;;;;;35.23;24.07;;;4.90;83.20;;;;;;5055517;28;20374;-82
2020/12/06 07:23:32;;;;;;;34.93;23.37;;;4.80;83.00;;;;;;5072119;28;20100;-81
2020/12/06 07:26:18;;;;;;;35.73;23.37;;;4.90;83.30;;;;;;5058292;28;20045;-81
2020/12/06 07:28:44;;;;;;;35.73;23.47;;;4.90;83.40;;;;;;5039697;28;20380;-81
2020/12/06 07:31:09;;;;;;;31.70;22.13;;;4.90;84.00;;;;;;5071838;28;20028;-81
2020/12/06 07:33:35;;;;;;;31.40;22.47;;;4.90;83.30;;;;;;5041359;28;20043;-82
2020/12/06 07:36:01;;;;;;;33.53;22.10;;;4.90;83.30;;;;;;5054227;28;20039;-82
2020/12/06 07:38:27;;;;;;;32.43;22.23;;;4.90;83.20;;;;;;5071623;28;20115;-82
2020/12/06 07:41:02;;;;;;;30.00;22.23;;;4.90;83.20;;;;;;5075733;28;20048;-82
2020/12/06 07:43:31;;;;;;;32.70;22.13;;;4.90;83.10;;;;;;5051546;28;20028;-82
2020/12/06 07:46:17;;;;;;;32.80;21.57;;;5.10;83.30;;;;;;5051335;28;20077;-82
2020/12/06 07:48:43;;;;;;;29.83;21.47;;;4.90;83.10;;;;;;5054357;28;20042;-82
2020/12/06 07:51:09;;;;;;;34.73;21.80;;;4.90;83.10;;;;;;5055025;28;20033;-82
2020/12/06 07:53:56;;;;;;;28.93;20.00;;;4.90;83.10;;;;;;5040155;28;20103;-82
2020/12/06 07:56:44;;;;;;;33.60;21.30;;;5.00;83.20;;;;;;5052188;28;20068;-82
2020/12/06 07:59:23;;;;;;;39.40;21.90;;;4.90;83.20;;;;;;5067277;28;20112;-82
2020/12/06 08:01:50;;;;;;;32.07;21.80;;;4.90;83.10;;;;;;5057534;28;20040;-82
2020/12/06 08:04:36;;;;;;;30.30;20.83;;;4.90;83.20;;;;;;5065174;28;20127;-82
2020/12/06 08:07:14;;;;;;;32.30;21.30;;;4.90;83.40;;;;;;5036679;28;20075;-82
2020/12/06 08:09:42;;;;;;;31.20;20.60;;;4.90;83.30;;;;;;5074708;28;20095;-82
2020/12/06 08:12:08;;;;;;;31.17;21.57;;;4.90;83.50;;;;;;5061169;28;20036;-81
2020/12/06 08:14:34;;;;;;;29.50;21.90;;;4.90;83.50;;;;;;5060139;28;20120;-82
2020/12/06 08:17:03;;;;;;;28.80;20.23;;;4.90;83.50;;;;;;5074649;28;20052;-83
2020/12/06 08:19:29;;;;;;;35.70;22.63;;;5.00;83.70;;;;;;5081127;28;20056;-82
2020/12/06 08:22:15;;;;;;;34.73;22.63;;;5.00;83.80;;;;;;5061707;28;20048;-82
2020/12/06 08:24:41;;;;;;;35.80;24.33;;;5.00;83.70;;;;;;5056200;28;20065;-83
2020/12/06 08:27:17;;;;;;;35.30;24.03;;;5.10;83.70;;;;;;5077861;28;20033;-82
2020/12/06 08:30:11;;;;;;;34.60;23.67;;;5.00;83.40;;;;;;5050784;28;20044;-82
2020/12/06 08:33:03;;;;;;;40.03;26.15;;;5.00;83.50;;;;;;5062738;28;20525;-82
2020/12/06 08:35:51;;;;;;;35.40;24.30;;;5.00;83.50;;;;;;5042502;28;20045;-81
2020/12/06 08:38:37;;;;;;;34.10;23.00;;;5.10;83.80;;;;;;5047142;28;20045;-81
2020/12/06 08:41:07;;;;;;;35.97;25.20;;;5.10;84.00;;;;;;5052881;28;20047;-83
2020/12/06 08:44:03;;;;;;;38.87;25.13;;;5.10;83.60;;;;;;5050498;28;20036;-83
2020/12/06 08:46:29;;;;;;;38.47;24.73;;;5.10;83.70;;;;;;5066737;28;20029;-83
2020/12/06 08:48:56;;;;;;;42.17;24.93;;;5.10;84.00;;;;;;5073292;28;20093;-83
2020/12/06 08:51:29;;;;;;;34.47;24.20;;;5.20;84.10;;;;;;5071068;28;20040;-83
2020/12/06 08:53:56;;;;;;;37.20;24.85;;;5.30;84.10;;;;;;5043825;28;20492;-84
2020/12/06 08:56:33;;;;;;;35.37;24.33;;;5.30;84.10;;;;;;5033017;28;20048;-83
2020/12/06 08:59:09;;;;;;;38.53;25.27;;;5.40;84.10;;;;;;5036716;28;20165;-83
2020/12/06 09:01:51;;;;;;;34.13;24.30;;;5.40;84.10;;;;;;5054948;28;20057;-83
2020/12/06 09:04:37;;;;;;;33.57;23.50;;;5.50;84.20;;;;;;5057981;28;20040;-83
2020/12/06 09:07:23;;;;;;;31.87;24.27;;;5.60;84.50;;;;;;5041609;28;20090;-83
2020/12/06 09:09:48;;;;;;;33.83;23.57;;;5.60;84.50;;;;;;5060187;28;20119;-82
2020/12/06 09:12:14;;;;;;;33.27;23.83;;;5.70;84.40;;;;;;5074627;28;20380;-83
2020/12/06 09:14:40;;;;;;;39.17;24.70;;;5.70;84.30;;;;;;5071818;28;20036;-83
2020/12/06 09:17:06;;;;;;;34.90;24.40;;;5.80;83.70;;;;;;5065920;28;20119;-82
2020/12/06 09:19:32;;;;;;;38.63;24.37;;;5.80;83.40;;;;;;5071991;28;20119;-83
2020/12/06 09:21:58;;;;;;;35.73;24.20;;;6.10;83.30;;;;;;5075255;28;20064;-82
2020/12/06 09:24:23;;;;;;;38.00;26.60;;;5.80;83.50;;;;;;5057205;28;20028;-82
2020/12/06 09:26:49;;;;;;;38.63;26.10;;;5.80;82.80;;;;;;5070375;28;20032;-82
2020/12/06 09:29:15;;;;;;;36.80;26.67;;;5.80;82.80;;;;;;5074089;28;20123;-81
2020/12/06 09:31:41;;;;;;;39.23;26.30;;;5.90;83.00;;;;;;5062212;28;20056;-83
2020/12/06 09:34:06;;;;;;;38.20;24.77;;;5.90;83.00;;;;;;5041348;28;20381;-83
2020/12/06 09:36:32;;;;;;;36.13;24.23;;;5.90;83.00;;;;;;5068913;28;20067;-83
2020/12/06 09:38:58;;;;;;;32.80;23.20;;;6.00;82.50;;;;;;5071310;28;20033;-83
2020/12/06 09:41:49;;;;;;;35.33;24.63;;;6.00;82.70;;;;;;5042608;28;20150;-82
2020/12/06 09:44:15;;;;;;;34.43;24.63;;;6.00;82.80;;;;;;5067078;28;20057;-83
2020/12/06 09:47:01;;;;;;;36.47;26.03;;;6.00;82.40;;;;;;5030856;28;20094;-83
2020/12/06 09:49:26;;;;;;;32.13;23.13;;;6.10;82.10;;;;;;5073184;28;20461;-81
2020/12/06 09:51:52;;;;;;;34.10;23.97;;;6.10;82.30;;;;;;5040849;28;20033;-83
2020/12/06 09:54:18;;;;;;;33.67;24.07;;;6.10;82.30;;;;;;5051460;28;20037;-82
2020/12/06 09:57:04;;;;;;;36.93;25.43;;;6.20;82.10;;;;;;5027156;28;20045;-83
2020/12/06 09:59:29;;;;;;;37.30;24.97;;;6.20;81.70;;;;;;5072165;28;20090;-83
2020/12/06 10:01:55;;;;;;;34.17;24.07;;;6.20;81.80;;;;;;5068910;28;20052;-82
2020/12/06 10:04:21;;;;;;;34.07;24.90;;;6.20;81.80;;;;;;5055131;28;20028;-83
2020/12/06 10:07:06;;;;;;;35.90;24.57;;;6.30;81.60;;;;;;5060588;28;20045;-83
2020/12/06 10:09:52;;;;;;;34.37;24.77;;;6.40;82.20;;;;;;5058891;28;20424;-83
2020/12/06 10:12:18;;;;;;;33.57;24.30;;;6.40;82.10;;;;;;5059842;28;20028;-83
2020/12/06 10:14:45;;;;;;;30.53;23.47;;;6.40;81.20;;;;;;5069648;28;20088;-83
2020/12/06 10:17:11;;;;;;;31.53;23.23;;;6.50;81.70;;;;;;5075877;28;20046;-83
2020/12/06 10:19:37;;;;;;;33.17;23.77;;;6.60;81.90;;;;;;5038099;28;20049;-83
2020/12/06 10:22:03;;;;;;;32.40;23.47;;;6.70;82.10;;;;;;5053757;28;20097;-82
2020/12/06 10:24:29;;;;;;;31.47;23.07;;;6.70;82.00;;;;;;5038518;28;20071;-83
2020/12/06 10:26:56;;;;;;;37.67;23.93;;;7.00;82.10;;;;;;5073403;28;20037;-83
2020/12/06 10:29:23;;;;;;;26.80;21.50;;;6.90;82.00;;;;;;5039250;28;20047;-82
2020/12/06 10:31:50;;;;;;;30.80;21.63;;;7.00;82.10;;;;;;5074354;28;20063;-82
2020/12/06 10:34:35;;;;;;;27.47;20.43;;;7.10;82.00;;;;;;5061860;28;20048;-83
2020/12/06 10:37:01;;;;;;;30.13;22.47;;;7.20;81.70;;;;;;5042747;28;20116;-82
2020/12/06 10:39:28;;;;;;;32.40;23.07;;;7.20;81.20;;;;;;5058703;28;20043;-84
2020/12/06 10:41:54;;;;;;;31.43;22.93;;;7.50;81.70;;;;;;5057855;28;20109;-83
2020/12/06 10:44:40;;;;;;;29.00;22.37;;;7.20;81.00;;;;;;5044477;28;20044;-82
2020/12/06 10:47:26;;;;;;;34.83;23.77;;;7.20;80.50;;;;;;5031998;28;20043;-83
2020/12/06 10:49:51;;;;;;;34.00;23.40;;;7.20;80.40;;;;;;5054064;28;20037;-83
2020/12/06 10:52:17;;;;;;;33.00;23.43;;;7.30;80.50;;;;;;5070556;28;20039;-83
2020/12/06 10:54:43;;;;;;;30.77;24.40;;;7.30;80.60;;;;;;5073489;28;20028;-83
2020/12/06 10:57:09;;;;;;;36.17;24.33;;;7.40;80.30;;;;;;5073132;28;20033;-84
2020/12/06 10:59:37;;;;;;;34.63;24.37;;;7.40;80.30;;;;;;5071905;28;20033;-83
2020/12/06 11:02:03;;;;;;;34.57;24.80;;;7.40;79.70;;;;;;5072316;28;20109;-83
2020/12/06 11:04:29;;;;;;;31.80;23.70;;;7.50;80.10;;;;;;5073804;28;20036;-82
2020/12/06 11:06:58;;;;;;;32.87;24.93;;;7.70;80.20;;;;;;5068969;28;20128;-83
2020/12/06 11:09:24;;;;;;;33.30;23.73;;;7.60;79.70;;;;;;5071267;28;20032;-82
2020/12/06 11:12:09;;;;;;;30.23;23.83;;;7.60;80.00;;;;;;5059333;28;20050;-83
2020/12/06 11:14:35;;;;;;;34.87;25.10;;;7.70;79.70;;;;;;5055170;28;20096;-83
2020/12/06 11:17:21;;;;;;;34.57;25.73;;;7.70;79.70;;;;;;5074077;28;20041;-83
2020/12/06 11:19:47;;;;;;;40.20;27.10;;;7.80;79.10;;;;;;5051885;28;20556;-83
2020/12/06 11:22:33;;;;;;;36.53;26.27;;;8.00;79.20;;;;;;5069713;28;20136;-82
2020/12/06 11:24:58;;;;;;;33.00;23.57;;;7.80;79.30;;;;;;5041360;28;20056;-82
2020/12/06 11:27:24;;;;;;;30.93;23.53;;;7.90;79.50;;;;;;5040291;28;20095;-81
2020/12/06 11:29:53;;;;;;;29.60;23.53;;;8.00;79.20;;;;;;5058599;28;20735;-83
2020/12/06 11:32:22;;;;;;;29.70;22.57;;;8.00;78.60;;;;;;5041067;28;20059;-82
2020/12/06 11:35:08;;;;;;;30.37;23.40;;;8.10;78.40;;;;;;5073639;28;20044;-83
2020/12/06 11:37:54;;;;;;;28.47;22.57;;;8.10;78.40;;;;;;5056228;28;20064;-84
2020/12/06 11:40:39;;;;;;;32.07;24.07;;;8.20;78.40;;;;;;5072463;28;20045;-83
2020/12/06 11:43:05;;;;;;;28.27;22.30;;;8.20;77.80;;;;;;5073544;28;20073;-82
2020/12/06 11:45:31;;;;;;;28.73;22.53;;;8.10;77.80;;;;;;5073741;28;20094;-83
2020/12/06 11:48:16;;;;;;;28.63;22.30;;;8.20;77.90;;;;;;5058624;28;20051;-83
2020/12/06 11:51:02;;;;;;;31.67;22.23;;;8.20;77.80;;;;;;5074210;28;20097;-83
2020/12/06 11:53:28;;;;;;;33.33;23.40;;;8.20;77.70;;;;;;5075985;28;20060;-84
2020/12/06 11:56:14;;;;;;;30.07;23.37;;;8.20;77.20;;;;;;5059092;28;20396;-83
2020/12/06 11:58:41;;;;;;;28.17;22.57;;;8.10;77.70;;;;;;5037359;28;20044;-83
2020/12/06 12:01:07;;;;;;;29.53;22.93;;;8.20;78.20;;;;;;5084544;28;20040;-83
2020/12/06 12:03:32;;;;;;;31.33;23.57;;;8.20;78.30;;;;;;5065692;28;20143;-83
2020/12/06 12:05:58;;;;;;;30.67;23.47;;;8.20;78.50;;;;;;5045381;28;22744;-83
2020/12/06 12:08:24;;;;;;;35.37;24.53;;;8.20;78.30;;;;;;5054684;28;20041;-83
2020/12/06 12:10:50;;;;;;;28.57;23.30;;;8.20;78.20;;;;;;5067769;28;20044;-84
2020/12/06 12:13:15;;;;;;;31.27;23.33;;;8.10;78.20;;;;;;5045962;28;20033;-82
2020/12/06 12:15:41;;;;;;;31.80;23.73;;;8.10;78.40;;;;;;5052877;28;20142;-83
2020/12/06 12:18:27;;;;;;;33.57;25.60;;;8.20;78.50;;;;;;5048589;28;20075;-83
2020/12/06 12:21:13;;;;;;;32.20;25.23;;;8.10;78.60;;;;;;5057297;28;20048;-84
2020/12/06 12:23:39;;;;;;;34.00;25.17;;;8.10;78.80;;;;;;5071653;28;20059;-84
2020/12/06 12:26:24;;;;;;;32.93;24.43;;;8.00;79.00;;;;;;5031074;28;20062;-84
2020/12/06 12:28:50;;;;;;;35.17;24.90;;;8.00;79.30;;;;;;5040066;28;20138;-84
2020/12/06 12:31:18;;;;;;;32.17;24.73;;;8.00;79.60;;;;;;5055559;28;20043;-83
2020/12/06 12:33:44;;;;;;;39.40;27.83;;;8.00;79.80;;;;;;5059517;28;20036;-84
2020/12/06 12:36:10;;;;;;;35.43;26.27;;;8.00;79.10;;;;;;5057211;28;20033;-84
2020/12/06 12:38:36;;;;;;;36.80;25.97;;;8.00;79.00;;;;;;5046143;28;20508;-83
2020/12/06 12:41:02;;;;;;;38.63;27.70;;;8.00;79.40;;;;;;5068942;28;20033;-83
2020/12/06 12:43:28;;;;;;;37.10;26.83;;;8.00;79.50;;;;;;5046560;28;20040;-83
2020/12/06 12:45:53;;;;;;;36.53;25.27;;;8.00;79.60;;;;;;5068667;28;20045;-83
2020/12/06 12:48:40;;;;;;;43.53;28.43;;;8.00;79.90;;;;;;5038452;28;20052;-83
2020/12/06 12:51:06;;;;;;;38.40;27.83;;;8.00;79.90;;;;;;5067056;28;20044;-84
2020/12/06 12:53:34;;;;;;;39.93;28.50;;;8.00;80.20;;;;;;5072748;28;20033;-82
2020/12/06 12:56:00;;;;;;;37.93;27.87;;;8.00;80.20;;;;;;5069293;28;20036;-84
2020/12/06 12:58:46;;;;;;;40.17;28.50;;;8.10;80.30;;;;;;5056481;28;20063;-83
2020/12/06 13:01:11;;;;;;;39.17;27.23;;;8.00;80.30;;;;;;5066626;28;20037;-83
2020/12/06 13:03:57;;;;;;;41.53;28.83;;;8.00;80.30;;;;;;5057610;28;20440;-84